createdAt,value
2023-03-21T00:00:48.231Z,7.51
2023-03-21T00:03:16.248Z,7.44
2023-03-21T00:05:49.613Z,7.50
2023-03-21T00:08:16.198Z,7.42
2023-03-21T00:10:43.890Z,7.56
2023-03-21T00:13:15.398Z,7.48
2023-03-21T00:16:06.162Z,7.49
2023-03-21T00:18:46.565Z,7.51
2023-03-21T00:21:39.534Z,7.51
2023-03-21T00:24:02.624Z,7.54
2023-03-21T00:26:29.292Z,7.57
2023-03-21T00:28:55.740Z,7.52
2023-03-21T00:31:22.152Z,7.42
2023-03-21T00:33:48.562Z,7.55
2023-03-21T00:36:15.851Z,7.39
2023-03-21T00:38:42.681Z,7.55
2023-03-21T00:41:23.276Z,7.51
2023-03-21T00:43:55.325Z,7.53
2023-03-21T00:46:23.272Z,7.72
2023-03-21T00:48:49.928Z,7.74
2023-03-21T00:51:25.892Z,7.68
2023-03-21T00:53:57.132Z,7.65
2023-03-21T00:56:23.641Z,7.64
2023-03-21T00:58:51.107Z,7.53
2023-03-21T01:01:18.333Z,7.59
2023-03-21T01:03:50.719Z,7.67
2023-03-21T01:06:22.145Z,7.62
2023-03-21T01:08:52.642Z,7.72
2023-03-21T01:11:22.992Z,7.64
2023-03-21T01:14:20.956Z,7.59
2023-03-21T01:16:37.625Z,7.63
2023-03-21T01:19:11.869Z,7.53
2023-03-21T01:21:41.262Z,7.43
2023-03-21T01:24:08.043Z,7.51
2023-03-21T01:26:34.496Z,7.52
2023-03-21T01:29:00.925Z,7.33
2023-03-21T01:31:27.380Z,7.52
2023-03-21T01:33:53.792Z,7.50
2023-03-21T01:36:24.313Z,7.47
2023-03-21T01:38:52.243Z,7.51
2023-03-21T01:41:26.200Z,7.50
2023-03-21T01:43:55.308Z,7.41
2023-03-21T01:46:54.476Z,7.25
2023-03-21T01:49:28.650Z,7.32
2023-03-21T01:52:11.539Z,7.29
2023-03-21T01:54:43.001Z,7.39
2023-03-21T01:57:13.809Z,7.23
2023-03-21T01:59:54.483Z,7.25
2023-03-21T02:02:28.368Z,7.29
2023-03-21T02:04:58.132Z,7.15
2023-03-21T02:07:29.759Z,7.18
2023-03-21T02:09:57.914Z,7.34
2023-03-21T02:12:26.542Z,7.28
2023-03-21T02:14:53.544Z,7.19
2023-03-21T02:17:59.497Z,7.22
2023-03-21T02:20:52.319Z,7.25
2023-03-21T02:23:30.477Z,7.32
2023-03-21T02:26:15.624Z,7.25
2023-03-21T02:28:47.664Z,7.24
2023-03-21T02:32:09.291Z,7.24
2023-03-21T02:34:46.273Z,7.46
2023-03-21T02:37:42.919Z,7.18
2023-03-21T02:40:30.763Z,7.39
2023-03-21T02:43:23.366Z,7.25
2023-03-21T02:46:28.298Z,7.34
2023-03-21T02:49:38.522Z,7.21
2023-03-21T02:52:17.073Z,7.25
2023-03-21T02:54:49.436Z,7.34
2023-03-21T02:57:19.324Z,7.12
2023-03-21T02:59:55.553Z,7.34
2023-03-21T03:02:27.099Z,7.28
2023-03-21T03:04:53.661Z,7.43
2023-03-21T03:07:41.489Z,7.33
2023-03-21T03:10:31.401Z,7.42
2023-03-21T03:13:18.605Z,7.40
2023-03-21T03:15:57.249Z,7.38
2023-03-21T03:18:23.964Z,7.50
2023-03-21T03:21:15.536Z,7.43
2023-03-21T03:23:54.052Z,7.46
2023-03-21T03:26:41.025Z,7.51
2023-03-21T03:29:12.146Z,7.41
2023-03-21T03:31:48.958Z,7.46
2023-03-21T03:34:21.111Z,7.49
2023-03-21T03:36:56.096Z,7.34
2023-03-21T03:39:35.590Z,7.34
2023-03-21T03:42:21.756Z,7.31
2023-03-21T03:44:54.120Z,7.34
2023-03-21T03:47:35.062Z,7.25
2023-03-21T03:50:13.330Z,7.28
2023-03-21T03:52:56.233Z,7.30
2023-03-21T03:55:27.045Z,7.23
2023-03-21T03:57:54.868Z,7.29
2023-03-21T04:00:21.438Z,7.30
2023-03-21T04:02:47.926Z,7.16
2023-03-21T04:05:14.474Z,7.15
2023-03-21T04:07:41.288Z,7.22
2023-03-21T04:10:08.145Z,7.07
2023-03-21T04:12:34.554Z,7.20
2023-03-21T04:15:09.945Z,7.17
2023-03-21T04:17:38.347Z,7.22
2023-03-21T04:20:12.346Z,7.26
2023-03-21T04:22:41.909Z,7.30
2023-03-21T04:25:09.150Z,7.26
2023-03-21T04:27:35.681Z,7.16
2023-03-21T04:30:03.417Z,7.20
2023-03-21T04:32:33.781Z,7.13
2023-03-21T04:35:00.802Z,7.33
2023-03-21T04:37:27.926Z,7.38
2023-03-21T04:39:54.801Z,7.38
2023-03-21T04:42:21.414Z,7.40
2023-03-21T04:44:48.900Z,7.33
2023-03-21T04:47:16.311Z,7.29
2023-03-21T04:49:43.485Z,7.32
2023-03-21T04:52:09.896Z,7.27
2023-03-21T04:54:36.866Z,7.33
2023-03-21T04:57:04.564Z,7.14
2023-03-21T04:59:31.576Z,7.24
2023-03-21T05:01:58.610Z,7.20
2023-03-21T05:04:27.227Z,7.25
2023-03-21T05:06:54.985Z,7.24
2023-03-21T05:09:22.258Z,7.23
2023-03-21T05:11:49.319Z,7.18
2023-03-21T05:14:19.128Z,7.26
2023-03-21T05:16:53.128Z,7.02
2023-03-21T05:19:22.708Z,7.08
2023-03-21T05:21:49.953Z,7.06
2023-03-21T05:24:19.917Z,7.17
2023-03-21T05:26:50.394Z,7.21
2023-03-21T05:29:18.731Z,7.16
2023-03-21T05:31:46.178Z,7.23
2023-03-21T05:34:13.821Z,7.16
2023-03-21T05:36:40.276Z,7.28
2023-03-21T05:39:06.938Z,7.22
2023-03-21T05:41:33.420Z,7.22
2023-03-21T05:44:00.722Z,7.33
2023-03-21T05:46:27.265Z,7.33
2023-03-21T05:48:53.757Z,7.30
2023-03-21T05:51:20.148Z,7.14
2023-03-21T05:53:46.639Z,7.32
2023-03-21T05:56:13.065Z,7.30
2023-03-21T05:58:39.504Z,7.16
2023-03-21T06:01:06.331Z,7.30
2023-03-21T06:03:32.900Z,7.34
2023-03-21T06:05:59.496Z,7.42
2023-03-21T06:08:25.905Z,7.25
2023-03-21T06:10:52.455Z,7.35
2023-03-21T06:13:18.861Z,7.25
2023-03-21T06:15:45.347Z,7.23
2023-03-21T06:18:11.749Z,7.14
2023-03-21T06:20:38.258Z,7.25
2023-03-21T06:23:04.677Z,7.30
2023-03-21T06:25:31.168Z,7.19
2023-03-21T06:27:57.592Z,7.27
2023-03-21T06:30:24.042Z,7.16
2023-03-21T06:32:50.723Z,7.25
2023-03-21T06:35:17.190Z,7.24
2023-03-21T06:37:45.391Z,7.37
2023-03-21T06:40:13.656Z,7.38
2023-03-21T06:42:40.277Z,7.32
2023-03-21T06:45:07.141Z,7.50
2023-03-21T06:47:33.617Z,7.50
2023-03-21T06:50:00.025Z,7.48
2023-03-21T06:52:26.394Z,7.29
2023-03-21T06:54:52.869Z,7.41
2023-03-21T06:57:21.761Z,7.46
2023-03-21T06:59:48.184Z,7.29
2023-03-21T07:02:15.130Z,7.41
2023-03-21T07:04:41.710Z,7.54
2023-03-21T07:07:08.194Z,7.34
2023-03-21T07:09:34.839Z,7.34
2023-03-21T07:12:01.345Z,7.53
2023-03-21T07:14:28.009Z,7.54
2023-03-21T07:16:54.507Z,7.61
2023-03-21T07:19:20.908Z,7.54
2023-03-21T07:21:47.340Z,7.53
2023-03-21T07:24:13.788Z,7.56
2023-03-21T07:26:40.294Z,7.61
2023-03-21T07:29:06.776Z,7.58
2023-03-21T07:31:33.372Z,7.65
2023-03-21T07:33:59.809Z,7.65
2023-03-21T07:36:26.453Z,7.69
2023-03-21T07:38:52.901Z,7.79
2023-03-21T07:41:19.348Z,7.75
2023-03-21T07:43:45.882Z,7.82
2023-03-21T07:46:12.384Z,7.75
2023-03-21T07:48:39.049Z,7.76
2023-03-21T07:51:06.429Z,7.70
2023-03-21T07:53:33.148Z,7.82
2023-03-21T07:55:59.544Z,7.88
2023-03-21T07:58:27.160Z,7.84
2023-03-21T08:00:55.406Z,7.91
2023-03-21T08:03:23.750Z,7.89
2023-03-21T08:05:50.607Z,8.04
2023-03-21T08:08:17.072Z,7.96
2023-03-21T08:10:44.383Z,8.01
2023-03-21T08:13:10.981Z,8.08
2023-03-21T08:15:38.155Z,8.06
2023-03-21T08:18:04.864Z,8.24
2023-03-21T08:20:31.328Z,8.03
2023-03-21T08:22:57.786Z,8.20
2023-03-21T08:25:24.236Z,8.23
2023-03-21T08:27:51.678Z,8.25
2023-03-21T08:30:21.850Z,8.12
2023-03-21T08:32:49.158Z,8.22
2023-03-21T08:35:18.179Z,8.34
2023-03-21T08:37:44.946Z,8.24
2023-03-21T08:40:15.606Z,8.37
2023-03-21T08:42:42.496Z,8.24
2023-03-21T08:45:10.957Z,8.45
2023-03-21T08:47:37.492Z,8.53
2023-03-21T08:50:09.385Z,8.46
2023-03-21T08:52:35.904Z,8.47
2023-03-21T08:55:02.692Z,8.58
2023-03-21T08:57:29.961Z,8.60
2023-03-21T08:59:56.964Z,8.53
2023-03-21T09:02:23.724Z,8.49
2023-03-21T09:04:53.044Z,8.64
2023-03-21T09:07:20.063Z,8.73
2023-03-21T09:09:53.454Z,8.52
2023-03-21T09:12:24.617Z,8.68
2023-03-21T09:14:53.064Z,8.64
2023-03-21T09:17:21.212Z,8.65
2023-03-21T09:19:49.261Z,8.75
2023-03-21T09:22:17.319Z,8.66
2023-03-21T09:24:47.530Z,8.83
2023-03-21T09:27:15.739Z,8.89
2023-03-21T09:29:44.659Z,8.83
2023-03-21T09:32:13.329Z,8.92
2023-03-21T09:34:41.118Z,8.88
2023-03-21T09:37:13.117Z,8.95
2023-03-21T09:39:44.719Z,9.04
2023-03-21T09:42:20.659Z,9.08
2023-03-21T09:45:07.590Z,9.05
2023-03-21T09:47:49.453Z,9.03
2023-03-21T09:50:31.923Z,9.12
2023-03-21T09:53:06.029Z,9.28
2023-03-21T09:55:40.927Z,9.31
2023-03-21T09:58:29.720Z,9.20
2023-03-21T10:01:05.242Z,9.16
2023-03-21T10:03:36.837Z,9.30
2023-03-21T10:06:13.147Z,9.38
2023-03-21T10:08:41.848Z,9.35
2023-03-21T10:11:22.582Z,9.37
2023-03-21T10:13:59.942Z,9.35
2023-03-21T10:16:36.705Z,9.40
2023-03-21T10:19:10.304Z,9.45
2023-03-21T10:24:28.465Z,9.67
2023-03-21T10:26:56.226Z,9.47
2023-03-21T10:29:29.224Z,9.57
2023-03-21T10:31:56.200Z,9.66
2023-03-21T10:34:37.490Z,9.58
2023-03-21T10:37:05.584Z,9.45
2023-03-21T10:39:43.557Z,9.49
2023-03-21T10:42:19.455Z,9.57
2023-03-21T10:44:49.237Z,9.44
2023-03-21T10:47:25.487Z,9.50
2023-03-21T10:50:09.640Z,9.65
2023-03-21T10:52:45.503Z,9.55
2023-03-21T10:55:28.764Z,9.68
2023-03-21T10:57:59.993Z,9.72
2023-03-21T11:00:33.581Z,9.78
2023-03-21T11:03:00.499Z,9.79
2023-03-21T11:05:35.016Z,10.05
2023-03-21T11:08:18.772Z,9.96
2023-03-21T11:10:55.216Z,9.98
2023-03-21T11:13:32.682Z,10.14
2023-03-21T11:16:07.103Z,10.16
2023-03-21T11:18:39.084Z,10.04
2023-03-21T11:21:08.575Z,10.36
2023-03-21T11:23:41.190Z,10.33
2023-03-21T11:26:17.460Z,10.26
2023-03-21T11:28:45.971Z,10.54
2023-03-21T11:31:12.840Z,10.49
2023-03-21T11:33:45.903Z,10.54
2023-03-21T11:36:18.551Z,10.38
2023-03-21T11:38:50.805Z,10.47
2023-03-21T11:41:25.588Z,10.37
2023-03-21T11:43:54.010Z,10.29
2023-03-21T11:46:29.078Z,10.34
2023-03-21T11:48:57.372Z,10.29
2023-03-21T11:51:53.901Z,10.36
2023-03-21T11:54:35.781Z,10.46
2023-03-21T11:57:05.005Z,10.40
2023-03-21T11:59:56.751Z,10.29
2023-03-21T12:02:41.406Z,10.60
2023-03-21T12:05:19.146Z,10.66
2023-03-21T12:07:59.313Z,10.57
2023-03-21T12:10:43.236Z,10.61
2023-03-21T12:13:21.520Z,10.57
2023-03-21T12:16:04.045Z,10.71
2023-03-21T12:18:53.921Z,10.82
2023-03-21T12:21:29.175Z,10.76
2023-03-21T12:24:20.180Z,10.88
2023-03-21T12:27:02.847Z,11.01
2023-03-21T12:30:03.224Z,10.94
2023-03-21T12:32:54.455Z,10.97
2023-03-21T12:35:29.773Z,10.98
2023-03-21T12:38:15.902Z,10.77
2023-03-21T12:41:10.293Z,10.86
2023-03-21T12:43:58.482Z,10.79
2023-03-21T12:46:37.179Z,10.94
2023-03-21T12:49:13.804Z,10.94
2023-03-21T12:51:44.071Z,10.79
2023-03-21T12:54:23.471Z,10.78
2023-03-21T12:56:57.227Z,10.77
2023-03-21T12:59:38.889Z,10.70
2023-03-21T13:02:17.378Z,10.61
2023-03-21T13:05:00.176Z,10.59
2023-03-21T13:07:31.809Z,10.23
2023-03-21T13:09:59.433Z,10.35
2023-03-21T13:12:41.755Z,10.24
2023-03-21T13:15:24.878Z,10.28
2023-03-21T13:18:01.999Z,10.29
2023-03-21T13:20:46.233Z,10.36
2023-03-21T13:23:13.856Z,10.32
2023-03-21T13:25:47.443Z,10.27
2023-03-21T13:28:28.266Z,10.29
2023-03-21T13:31:16.737Z,10.23
2023-03-21T13:33:46.704Z,10.31
2023-03-21T13:36:16.080Z,10.37
2023-03-21T13:38:50.232Z,10.29
2023-03-21T13:41:28.376Z,10.34
2023-03-21T13:43:57.500Z,10.25
2023-03-21T13:46:26.869Z,10.23
2023-03-21T13:48:58.922Z,10.34
2023-03-21T13:51:28.902Z,10.34
2023-03-21T13:54:11.428Z,10.24
2023-03-21T13:56:46.991Z,10.28
2023-03-21T13:59:17.347Z,10.23
2023-03-21T14:02:19.296Z,10.22
2023-03-21T14:05:04.253Z,10.20
2023-03-21T14:07:36.695Z,10.29
2023-03-21T14:10:08.568Z,10.23
2023-03-21T14:12:40.738Z,10.31
2023-03-21T14:15:26.197Z,10.28
2023-03-21T14:17:56.955Z,10.38
2023-03-21T14:20:29.148Z,10.43
2023-03-21T14:22:55.763Z,10.53
2023-03-21T14:25:29.250Z,10.49
2023-03-21T14:28:01.471Z,10.46
2023-03-21T14:30:32.858Z,10.55
2023-03-21T14:33:04.851Z,10.55
2023-03-21T14:35:32.363Z,10.57
2023-03-21T14:38:05.632Z,10.47
2023-03-21T14:40:32.036Z,10.62
2023-03-21T14:43:05.044Z,10.59
2023-03-21T14:45:33.767Z,10.51
2023-03-21T14:48:08.220Z,10.68
2023-03-21T14:50:40.841Z,10.60
2023-03-21T14:53:14.491Z,10.70
2023-03-21T14:55:44.835Z,10.58
2023-03-21T14:58:14.285Z,10.59
2023-03-21T15:00:40.827Z,10.64
2023-03-21T15:03:07.620Z,10.68
2023-03-21T15:05:38.442Z,10.61
2023-03-21T15:08:14.770Z,10.60
2023-03-21T15:10:41.764Z,10.52
2023-03-21T15:13:18.551Z,10.55
2023-03-21T15:15:45.631Z,10.52
2023-03-21T15:18:17.375Z,10.43
2023-03-21T15:20:46.517Z,10.40
2023-03-21T15:23:19.929Z,10.32
2023-03-21T15:25:46.414Z,10.38
2023-03-21T15:28:14.244Z,10.38
2023-03-21T15:30:48.190Z,10.39
2023-03-21T15:33:15.249Z,10.27
2023-03-21T15:35:48.235Z,10.19
2023-03-21T15:38:36.294Z,10.19
2023-03-21T15:41:21.160Z,10.13
2023-03-21T15:43:59.938Z,10.11
2023-03-21T15:46:48.250Z,10.11
2023-03-21T15:49:14.746Z,10.05
2023-03-21T15:51:43.433Z,10.05
2023-03-21T15:54:27.109Z,10.08
2023-03-21T15:56:56.438Z,10.06
2023-03-21T15:59:26.729Z,10.00
2023-03-21T16:01:53.288Z,9.97
2023-03-21T16:04:20.340Z,9.95
2023-03-21T16:07:14.437Z,9.98
2023-03-21T16:09:44.659Z,9.90
2023-03-21T16:12:13.940Z,9.92
2023-03-21T16:14:42.557Z,9.91
2023-03-21T16:17:33.158Z,9.86
2023-03-21T16:20:00.735Z,9.91
2023-03-21T16:22:34.852Z,9.88
2023-03-21T16:25:01.326Z,9.93
2023-03-21T16:27:28.472Z,9.94
2023-03-21T16:29:54.861Z,10.00
2023-03-21T16:32:21.311Z,10.08
2023-03-21T16:34:48.348Z,10.04
2023-03-21T16:37:16.054Z,10.08
2023-03-21T16:39:43.013Z,10.08
2023-03-21T16:42:11.885Z,10.08
2023-03-21T16:44:39.530Z,10.11
2023-03-21T16:47:17.166Z,10.15
2023-03-21T16:49:44.157Z,10.07
2023-03-21T16:52:12.488Z,10.06
2023-03-21T16:54:40.241Z,10.07
2023-03-21T16:57:15.612Z,10.08
2023-03-21T16:59:42.732Z,10.02
2023-03-21T17:02:14.534Z,10.03
2023-03-21T17:04:41.036Z,9.99
2023-03-21T17:07:14.138Z,9.98
2023-03-21T17:09:43.645Z,9.89
2023-03-21T17:12:13.635Z,9.84
2023-03-21T17:14:41.887Z,9.86
2023-03-21T17:17:16.273Z,9.83
2023-03-21T17:19:43.155Z,9.78
2023-03-21T17:22:11.891Z,9.83
2023-03-21T17:24:39.725Z,9.75
2023-03-21T17:27:08.297Z,9.77
2023-03-21T17:29:34.782Z,9.73
2023-03-21T17:32:01.246Z,9.74
2023-03-21T17:34:27.681Z,9.76
2023-03-21T17:36:54.556Z,9.76
2023-03-21T17:39:24.195Z,9.76
2023-03-21T17:41:52.016Z,9.69
2023-03-21T17:44:19.864Z,9.72
2023-03-21T17:46:46.836Z,9.66
2023-03-21T17:49:15.741Z,9.59
2023-03-21T17:51:43.087Z,9.52
2023-03-21T17:54:10.061Z,9.50
2023-03-21T17:56:41.557Z,9.44
2023-03-21T17:59:12.520Z,9.45
2023-03-21T18:01:38.990Z,9.42
2023-03-21T18:04:05.738Z,9.45
2023-03-21T18:06:33.982Z,9.42
2023-03-21T18:09:01.123Z,9.43
2023-03-21T18:11:27.821Z,9.39
2023-03-21T18:14:06.502Z,9.40
2023-03-21T18:16:40.802Z,9.41
2023-03-21T18:19:07.321Z,9.44
2023-03-21T18:21:35.827Z,9.42
2023-03-21T18:24:02.527Z,9.42
2023-03-21T18:26:31.111Z,9.31
2023-03-21T18:29:47.331Z,9.38
2023-03-21T18:31:54.396Z,9.45
2023-03-21T18:34:30.829Z,9.42
2023-03-21T18:36:57.416Z,9.46
2023-03-21T18:39:23.845Z,9.45
2023-03-21T18:41:50.481Z,9.47
2023-03-21T18:44:19.376Z,9.47
2023-03-21T18:46:50.437Z,9.53
2023-03-21T18:52:04.861Z,9.59
2023-03-21T18:54:31.488Z,9.55
2023-03-21T18:59:44.842Z,9.55
2023-03-21T19:02:14.779Z,9.59
2023-03-21T19:04:41.629Z,9.58
2023-03-21T19:07:08.544Z,9.48
2023-03-21T19:09:58.203Z,9.57
2023-03-21T19:12:22.218Z,9.50
2023-03-21T19:14:48.912Z,9.51
2023-03-21T19:18:14.350Z,9.52
2023-03-21T19:20:01.955Z,9.47
2023-03-21T19:22:31.615Z,9.49
2023-03-21T19:24:58.650Z,9.44
2023-03-21T19:27:25.239Z,9.35
2023-03-21T19:30:08.378Z,9.44
2023-03-21T19:32:38.568Z,9.45
2023-03-21T19:35:05.538Z,9.48
2023-03-21T19:37:35.291Z,9.45
2023-03-21T19:40:03.508Z,9.29
2023-03-21T19:42:30.940Z,9.42
2023-03-21T19:44:57.780Z,9.37
2023-03-21T19:47:24.501Z,9.38
2023-03-21T19:52:40.482Z,9.17
2023-03-21T19:55:07.414Z,9.14
2023-03-21T19:57:34.870Z,9.17
2023-03-21T20:00:01.916Z,9.24
2023-03-21T20:02:37.006Z,9.25
2023-03-21T20:05:06.586Z,9.22
2023-03-21T20:07:33.184Z,9.25
2023-03-21T20:10:00.295Z,9.20
2023-03-21T20:12:27.553Z,9.17
2023-03-21T20:15:07.000Z,9.22
2023-03-21T20:17:38.849Z,9.13
2023-03-21T20:20:09.235Z,9.20
2023-03-21T20:23:05.079Z,9.14
2023-03-21T20:25:23.008Z,9.15
2023-03-21T20:28:09.276Z,9.06
2023-03-21T20:30:36.536Z,9.16
2023-03-21T20:33:03.100Z,9.10
2023-03-21T20:36:16.463Z,9.05
2023-03-21T20:38:20.456Z,9.05
2023-03-21T20:40:47.923Z,8.98
2023-03-21T20:43:50.801Z,8.99
2023-03-21T20:46:03.118Z,9.11
2023-03-21T20:48:29.736Z,9.05
2023-03-21T20:51:41.303Z,9.08
2023-03-21T20:53:53.795Z,9.11
2023-03-21T20:56:20.635Z,9.05
2023-03-21T20:59:01.960Z,9.00
2023-03-21T21:01:33.616Z,8.95
2023-03-21T21:04:00.710Z,8.84
2023-03-21T21:06:28.468Z,8.95
2023-03-21T21:08:55.826Z,9.00
2023-03-21T21:14:09.182Z,8.91
2023-03-21T21:16:35.598Z,9.02
2023-03-21T21:19:01.996Z,9.06
2023-03-21T21:21:28.753Z,9.02
2023-03-21T21:23:55.278Z,9.01
2023-03-21T21:26:21.665Z,8.99
2023-03-21T21:28:48.242Z,9.01
2023-03-21T21:31:19.838Z,8.98
2023-03-21T21:33:48.317Z,8.95
2023-03-21T21:36:14.730Z,8.78
2023-03-21T21:38:41.170Z,8.73
2023-03-21T21:41:09.329Z,8.81
2023-03-21T21:43:35.947Z,8.77
2023-03-21T21:46:02.534Z,8.69
2023-03-21T21:48:28.977Z,8.70
2023-03-21T21:50:55.516Z,8.75
2023-03-21T21:53:22.650Z,8.75
2023-03-21T21:55:49.657Z,8.73
2023-03-21T21:58:18.472Z,8.71
2023-03-21T22:00:46.323Z,8.64
2023-03-21T22:03:14.504Z,8.72
2023-03-21T22:05:41.236Z,8.70
2023-03-21T22:08:09.641Z,8.64
2023-03-21T22:10:37.181Z,8.64
2023-03-21T22:13:03.914Z,8.69
2023-03-21T22:15:30.450Z,8.57
2023-03-21T22:17:56.985Z,8.64
2023-03-21T22:20:23.446Z,8.59
2023-03-21T22:22:49.946Z,8.70
2023-03-21T22:25:17.841Z,8.67
2023-03-21T22:27:44.356Z,8.76
2023-03-21T22:30:13.950Z,8.62
2023-03-21T22:32:41.078Z,8.62
2023-03-21T22:35:08.933Z,8.69
2023-03-21T22:37:37.694Z,8.65
2023-03-21T22:40:08.034Z,8.69
2023-03-21T22:42:35.225Z,8.66
2023-03-21T22:45:01.774Z,8.72
2023-03-21T22:47:28.544Z,8.72
2023-03-21T22:49:55.040Z,8.66
2023-03-21T22:52:21.436Z,8.68
2023-03-21T22:54:49.114Z,8.68
2023-03-21T22:57:16.683Z,8.58
2023-03-21T22:59:43.179Z,8.58
2023-03-21T23:02:09.723Z,8.58
2023-03-21T23:04:36.291Z,8.58
2023-03-21T23:07:03.316Z,8.60
2023-03-21T23:09:30.172Z,8.64
2023-03-21T23:11:56.579Z,8.63
2023-03-21T23:14:23.745Z,8.60
2023-03-21T23:16:52.578Z,8.57
2023-03-21T23:19:20.417Z,8.66
2023-03-21T23:21:47.786Z,8.59
2023-03-21T23:24:15.421Z,8.64
2023-03-21T23:26:42.539Z,8.61
2023-03-21T23:29:10.957Z,8.59
2023-03-21T23:31:37.701Z,8.71
2023-03-21T23:34:04.197Z,8.73
2023-03-21T23:36:31.077Z,8.71
2023-03-21T23:38:57.645Z,8.72
2023-03-21T23:41:25.645Z,8.66
2023-03-21T23:43:52.485Z,8.72
2023-03-21T23:46:19.926Z,8.70
2023-03-21T23:48:46.859Z,8.73
2023-03-21T23:51:16.119Z,8.71
2023-03-21T23:53:44.270Z,8.66
2023-03-21T23:56:19.222Z,8.55
2023-03-21T23:58:46.854Z,8.58
